createdAt,value
2023-08-16T00:01:44.646Z,100.00
2023-08-16T00:04:11.661Z,100.00
2023-08-16T00:06:43.078Z,100.00
2023-08-16T00:09:10.365Z,100.00
2023-08-16T00:11:37.194Z,100.00
2023-08-16T00:14:04.527Z,100.00
2023-08-16T00:16:31.434Z,100.00
2023-08-16T00:18:58.273Z,100.00
2023-08-16T00:21:25.654Z,100.00
2023-08-16T00:23:52.501Z,100.00
2023-08-16T00:26:19.451Z,100.00
2023-08-16T00:28:48.098Z,100.00
2023-08-16T00:31:15.676Z,100.00
2023-08-16T00:33:42.662Z,100.00
2023-08-16T00:36:09.667Z,100.00
2023-08-16T00:38:36.616Z,100.00
2023-08-16T00:41:04.694Z,100.00
2023-08-16T00:43:31.529Z,100.00
2023-08-16T00:45:58.466Z,100.00
2023-08-16T00:48:25.395Z,100.00
2023-08-16T00:50:52.373Z,100.00
2023-08-16T00:53:20.002Z,100.00
2023-08-16T00:55:47.552Z,100.00
2023-08-16T00:58:15.870Z,100.00
2023-08-16T01:00:42.956Z,100.00
2023-08-16T01:03:10.019Z,100.00
2023-08-16T01:05:37.125Z,100.00
2023-08-16T01:08:04.538Z,100.00
2023-08-16T01:10:54.988Z,100.00
2023-08-16T01:13:30.200Z,100.00
2023-08-16T01:15:58.641Z,100.00
2023-08-16T01:18:27.273Z,100.00
2023-08-16T01:20:57.020Z,100.00
2023-08-16T01:23:51.863Z,100.00
2023-08-16T01:26:30.981Z,100.00
2023-08-16T01:29:00.394Z,100.00
2023-08-16T01:31:28.353Z,100.00
2023-08-16T01:33:55.426Z,100.00
2023-08-16T01:36:22.360Z,100.00
2023-08-16T01:38:49.793Z,100.00
2023-08-16T01:41:31.810Z,100.00
2023-08-16T01:43:59.971Z,100.00
2023-08-16T01:46:27.821Z,100.00
2023-08-16T01:48:56.892Z,100.00
2023-08-16T01:51:24.436Z,100.00
2023-08-16T01:53:53.556Z,100.00
2023-08-16T01:56:21.531Z,100.00
2023-08-16T01:58:49.131Z,100.00
2023-08-16T02:01:16.177Z,100.00
2023-08-16T02:03:43.092Z,100.00
2023-08-16T02:06:11.034Z,100.00
2023-08-16T02:08:38.766Z,100.00
2023-08-16T02:11:05.668Z,100.00
2023-08-16T02:13:32.722Z,100.00
2023-08-16T02:16:04.452Z,100.00
2023-08-16T02:18:32.589Z,100.00
2023-08-16T02:20:59.564Z,100.00
2023-08-16T02:23:26.505Z,100.00
2023-08-16T02:25:53.432Z,100.00
2023-08-16T02:28:20.688Z,100.00
2023-08-16T02:30:47.911Z,100.00
2023-08-16T02:33:14.967Z,100.00
2023-08-16T02:35:42.009Z,100.00
2023-08-16T02:38:08.919Z,100.00
2023-08-16T02:40:38.095Z,100.00
2023-08-16T02:43:05.248Z,100.00
2023-08-16T02:45:32.429Z,100.00
2023-08-16T02:47:59.681Z,100.00
2023-08-16T02:50:26.685Z,100.00
2023-08-16T02:52:53.630Z,100.00
2023-08-16T02:55:20.498Z,100.00
2023-08-16T02:57:48.144Z,100.00
2023-08-16T03:00:15.632Z,100.00
2023-08-16T03:02:42.688Z,100.00
2023-08-16T03:05:10.745Z,100.00
2023-08-16T03:07:37.742Z,100.00
2023-08-16T03:10:05.334Z,100.00
2023-08-16T03:12:32.318Z,100.00
2023-08-16T03:14:59.573Z,100.00
2023-08-16T03:17:26.682Z,100.00
2023-08-16T03:19:53.645Z,100.00
2023-08-16T03:22:20.946Z,100.00
2023-08-16T03:24:51.231Z,100.00
2023-08-16T03:27:19.805Z,100.00
2023-08-16T03:29:46.743Z,100.00
2023-08-16T03:32:16.567Z,100.00
2023-08-16T03:34:44.194Z,100.00
2023-08-16T03:37:11.169Z,100.00
2023-08-16T03:39:38.210Z,100.00
2023-08-16T03:42:05.411Z,100.00
2023-08-16T03:44:32.446Z,100.00
2023-08-16T03:46:59.712Z,100.00
2023-08-16T03:49:26.710Z,100.00
2023-08-16T03:51:53.574Z,100.00
2023-08-16T03:54:20.492Z,100.00
2023-08-16T03:56:47.426Z,100.00
2023-08-16T03:59:14.375Z,100.00
2023-08-16T04:01:41.289Z,100.00
2023-08-16T04:04:08.205Z,100.00
2023-08-16T04:06:35.146Z,100.00
2023-08-16T04:09:02.443Z,100.00
2023-08-16T04:11:29.928Z,100.00
2023-08-16T04:13:57.592Z,100.00
2023-08-16T04:16:24.836Z,100.00
2023-08-16T04:18:54.604Z,100.00
2023-08-16T04:21:22.834Z,100.00
2023-08-16T04:23:50.571Z,100.00
2023-08-16T04:26:17.701Z,100.00
2023-08-16T04:28:44.811Z,100.00
2023-08-16T04:31:11.660Z,100.00
2023-08-16T04:33:38.701Z,100.00
2023-08-16T04:36:05.933Z,100.00
2023-08-16T04:38:32.962Z,100.00
2023-08-16T04:41:00.035Z,100.00
2023-08-16T04:43:27.041Z,100.00
2023-08-16T04:45:54.251Z,100.00
2023-08-16T04:48:21.153Z,100.00
2023-08-16T04:50:48.097Z,100.00
2023-08-16T04:53:15.155Z,100.00
2023-08-16T04:55:44.038Z,100.00
2023-08-16T04:58:11.262Z,100.00
2023-08-16T05:00:43.989Z,100.00
2023-08-16T05:03:11.538Z,100.00
2023-08-16T05:05:39.480Z,100.00
2023-08-16T05:08:06.599Z,100.00
2023-08-16T05:10:33.630Z,100.00
2023-08-16T05:13:01.767Z,100.00
2023-08-16T05:15:29.557Z,100.00
2023-08-16T05:17:56.760Z,100.00
2023-08-16T05:20:23.660Z,100.00
2023-08-16T05:22:50.652Z,100.00
2023-08-16T05:25:17.734Z,100.00
2023-08-16T05:27:44.565Z,100.00
2023-08-16T05:30:11.981Z,100.00
2023-08-16T05:32:38.932Z,100.00
2023-08-16T05:35:06.033Z,100.00
2023-08-16T05:37:32.891Z,100.00
2023-08-16T05:39:59.928Z,100.00
2023-08-16T05:42:29.900Z,100.00
2023-08-16T05:44:56.956Z,100.00
2023-08-16T05:47:24.253Z,100.00
2023-08-16T05:49:51.505Z,100.00
2023-08-16T05:52:18.413Z,100.00
2023-08-16T05:54:45.268Z,100.00
2023-08-16T05:57:12.226Z,100.00
2023-08-16T05:59:39.173Z,100.00
2023-08-16T06:02:08.124Z,100.00
2023-08-16T06:04:35.763Z,100.00
2023-08-16T06:07:03.805Z,100.00
2023-08-16T06:09:31.441Z,100.00
2023-08-16T06:11:58.523Z,100.00
2023-08-16T06:14:25.383Z,100.00
2023-08-16T06:16:52.329Z,100.00
2023-08-16T06:19:19.256Z,100.00
2023-08-16T06:21:46.092Z,100.00
2023-08-16T06:24:13.226Z,100.00
2023-08-16T06:26:40.914Z,100.00
2023-08-16T06:29:08.297Z,100.00
2023-08-16T06:31:35.169Z,100.00
2023-08-16T06:34:02.027Z,100.00
2023-08-16T06:36:29.275Z,100.00
2023-08-16T06:38:56.105Z,100.00
2023-08-16T06:41:22.996Z,100.00
2023-08-16T06:43:49.817Z,100.00
2023-08-16T06:46:16.759Z,100.00
2023-08-16T06:48:43.580Z,100.00
2023-08-16T06:51:11.097Z,100.00
2023-08-16T06:53:40.158Z,100.00
2023-08-16T06:56:07.146Z,100.00
2023-08-16T06:58:33.966Z,100.00
2023-08-16T07:01:00.847Z,100.00
2023-08-16T07:03:27.891Z,100.00
2023-08-16T07:05:55.535Z,100.00
2023-08-16T07:08:22.636Z,100.00
2023-08-16T07:10:49.575Z,100.00
2023-08-16T07:13:16.426Z,100.00
2023-08-16T07:15:43.436Z,100.00
2023-08-16T07:18:10.490Z,100.00
2023-08-16T07:20:37.367Z,100.00
2023-08-16T07:23:05.126Z,100.00
2023-08-16T07:25:32.041Z,100.00
2023-08-16T07:27:59.272Z,100.00
2023-08-16T07:30:26.369Z,100.00
2023-08-16T07:32:53.319Z,100.00
2023-08-16T07:35:20.186Z,100.00
2023-08-16T07:37:48.380Z,100.00
2023-08-16T07:40:15.457Z,100.00
2023-08-16T07:42:42.523Z,100.00
2023-08-16T07:45:09.763Z,100.00
2023-08-16T07:47:36.685Z,100.00
2023-08-16T07:50:03.672Z,100.00
2023-08-16T07:52:30.590Z,100.00
2023-08-16T07:54:57.603Z,100.00
2023-08-16T07:57:24.509Z,100.00
2023-08-16T07:59:51.384Z,100.00
2023-08-16T08:02:18.395Z,100.00
2023-08-16T08:04:46.925Z,100.00
2023-08-16T08:07:14.446Z,100.00
2023-08-16T08:09:41.496Z,100.00
2023-08-16T08:12:08.486Z,100.00
2023-08-16T08:14:35.389Z,100.00
2023-08-16T08:17:03.625Z,100.00
2023-08-16T08:19:30.496Z,100.00
2023-08-16T08:21:57.453Z,100.00
2023-08-16T08:24:24.362Z,100.00
2023-08-16T08:26:51.195Z,100.00
2023-08-16T08:29:19.798Z,100.00
2023-08-16T08:31:46.711Z,100.00
2023-08-16T08:34:15.446Z,100.00
2023-08-16T08:36:42.559Z,100.00
2023-08-16T08:39:09.707Z,100.00
2023-08-16T08:41:46.289Z,100.00
2023-08-16T08:44:19.228Z,100.00
2023-08-16T08:46:48.049Z,100.00
2023-08-16T08:49:20.454Z,100.00
2023-08-16T08:51:48.007Z,100.00
2023-08-16T08:54:14.924Z,100.00
2023-08-16T08:56:42.006Z,100.00
2023-08-16T08:59:15.014Z,100.00
2023-08-16T09:01:45.432Z,100.00
2023-08-16T09:04:14.698Z,100.00
2023-08-16T09:06:43.002Z,100.00
2023-08-16T09:09:10.387Z,100.00
2023-08-16T09:11:37.783Z,100.00
2023-08-16T09:14:05.694Z,100.00
2023-08-16T09:16:32.911Z,100.00
2023-08-16T09:18:59.978Z,100.00
2023-08-16T09:21:30.088Z,100.00
2023-08-16T09:23:58.832Z,100.00
2023-08-16T09:26:28.441Z,100.00
2023-08-16T09:29:04.210Z,100.00
2023-08-16T09:31:38.932Z,100.00
2023-08-16T09:34:07.484Z,100.00
2023-08-16T09:36:37.939Z,100.00
2023-08-16T09:39:13.104Z,100.00
2023-08-16T09:41:53.206Z,100.00
2023-08-16T09:44:21.000Z,100.00
2023-08-16T09:49:18.207Z,100.00
2023-08-16T09:54:19.070Z,100.00
2023-08-16T10:04:20.665Z,100.00
2023-08-16T10:09:20.346Z,100.00
2023-08-16T10:11:49.887Z,100.00
2023-08-16T10:14:16.874Z,100.00
2023-08-16T10:16:50.251Z,100.00
2023-08-16T10:19:21.381Z,100.00
2023-08-16T10:21:49.984Z,100.00
2023-08-16T10:24:32.835Z,100.00
2023-08-16T10:27:04.578Z,100.00
2023-08-16T10:29:39.137Z,100.00
2023-08-16T10:32:09.730Z,100.00
2023-08-16T10:34:37.397Z,100.00
2023-08-16T10:37:05.287Z,100.00
2023-08-16T10:39:32.162Z,100.00
2023-08-16T10:42:08.427Z,100.00
2023-08-16T10:44:35.604Z,100.00
2023-08-16T10:47:02.528Z,100.00
2023-08-16T10:49:39.088Z,100.00
2023-08-16T10:52:06.268Z,100.00
2023-08-16T10:54:35.919Z,100.00
2023-08-16T10:57:04.384Z,100.00
2023-08-16T10:59:39.378Z,100.00
2023-08-16T11:02:17.320Z,100.00
2023-08-16T11:04:45.121Z,100.00
2023-08-16T11:07:15.988Z,100.00
2023-08-16T11:09:43.622Z,100.00
2023-08-16T11:12:10.627Z,100.00
2023-08-16T11:14:37.999Z,100.00
2023-08-16T11:17:05.071Z,100.00
2023-08-16T11:19:32.564Z,100.00
2023-08-16T11:22:04.795Z,100.00
2023-08-16T11:24:32.459Z,100.00
2023-08-16T11:26:59.409Z,100.00
2023-08-16T11:29:26.487Z,100.00
2023-08-16T11:31:57.889Z,100.00
2023-08-16T11:34:25.633Z,100.00
2023-08-16T11:36:52.609Z,100.00
2023-08-16T11:39:19.936Z,100.00
2023-08-16T11:41:46.954Z,100.00
2023-08-16T11:44:13.833Z,100.00
2023-08-16T11:46:42.903Z,100.00
2023-08-16T11:49:09.895Z,100.00
2023-08-16T11:51:43.939Z,100.00
2023-08-16T11:54:24.056Z,100.00
2023-08-16T11:56:54.371Z,100.00
2023-08-16T11:59:32.863Z,100.00
2023-08-16T12:02:08.194Z,100.00
2023-08-16T12:04:35.656Z,100.00
2023-08-16T12:07:02.952Z,100.00
2023-08-16T12:09:31.736Z,100.00
2023-08-16T12:11:58.823Z,100.00
2023-08-16T12:14:25.764Z,100.00
2023-08-16T12:16:52.715Z,100.00
2023-08-16T12:19:23.463Z,100.00
2023-08-16T12:21:51.566Z,100.00
2023-08-16T12:24:18.418Z,100.00
2023-08-16T12:26:45.529Z,100.00
2023-08-16T12:29:12.618Z,100.00
2023-08-16T12:31:40.225Z,100.00
2023-08-16T12:34:08.776Z,100.00
2023-08-16T12:36:35.818Z,100.00
2023-08-16T12:39:02.722Z,100.00
2023-08-16T12:41:29.561Z,100.00
2023-08-16T12:43:56.395Z,100.00
2023-08-16T12:46:23.205Z,100.00
2023-08-16T12:48:50.228Z,100.00
2023-08-16T12:51:17.908Z,100.00
2023-08-16T12:53:46.275Z,100.00
2023-08-16T12:56:14.213Z,100.00
2023-08-16T12:58:55.984Z,100.00
2023-08-16T13:01:24.206Z,100.00
2023-08-16T13:08:52.110Z,86.92
2023-08-16T13:13:51.448Z,77.67
2023-08-16T13:19:00.930Z,89.75
2023-08-16T13:24:23.372Z,67.62
2023-08-16T13:29:29.919Z,60.31
2023-08-16T13:37:00.015Z,98.96
2023-08-16T13:39:41.971Z,89.39
2023-08-16T13:42:17.114Z,66.73
2023-08-16T13:45:16.305Z,58.37
2023-08-16T13:47:32.564Z,53.48
2023-08-16T13:49:59.429Z,56.49
2023-08-16T13:52:26.515Z,52.82
2023-08-16T13:54:53.517Z,50.19
2023-08-16T13:57:21.915Z,47.31
2023-08-16T13:59:48.997Z,49.64
2023-08-16T14:02:15.940Z,52.64
2023-08-16T14:04:43.507Z,51.64
2023-08-16T14:07:10.358Z,50.18
2023-08-16T14:09:37.209Z,45.96
2023-08-16T14:12:04.252Z,45.53
2023-08-16T14:14:31.536Z,47.84
2023-08-16T14:16:58.430Z,42.34
2023-08-16T14:19:27.038Z,43.53
2023-08-16T14:21:57.239Z,42.53
2023-08-16T14:24:25.796Z,43.97
2023-08-16T14:26:52.708Z,41.27
2023-08-16T14:29:19.616Z,42.18
2023-08-16T14:31:46.502Z,43.82
2023-08-16T14:34:14.391Z,44.16
2023-08-16T14:36:41.304Z,41.48
2023-08-16T14:39:09.407Z,40.44
2023-08-16T14:41:37.256Z,44.20
2023-08-16T14:44:04.531Z,41.78
2023-08-16T14:46:31.407Z,39.31
2023-08-16T14:48:58.364Z,35.38
2023-08-16T14:51:25.206Z,36.74
2023-08-16T14:53:52.201Z,39.67
2023-08-16T14:56:19.517Z,47.08
2023-08-16T14:58:46.456Z,55.88
2023-08-16T15:01:13.673Z,60.30
2023-08-16T15:03:40.721Z,54.79
2023-08-16T15:06:07.736Z,48.27
2023-08-16T15:08:39.700Z,44.59
2023-08-16T15:11:20.180Z,47.60
2023-08-16T15:13:47.628Z,44.30
2023-08-16T15:16:18.284Z,39.57
2023-08-16T15:18:45.185Z,45.17
2023-08-16T15:21:12.093Z,44.27
2023-08-16T15:23:40.923Z,44.57
2023-08-16T15:26:09.255Z,43.93
2023-08-16T15:28:37.880Z,47.97
2023-08-16T15:31:06.074Z,51.18
2023-08-16T15:33:32.986Z,63.20
2023-08-16T15:36:00.311Z,84.43
2023-08-16T15:38:42.742Z,92.75
2023-08-16T15:41:10.218Z,86.74
2023-08-16T15:43:38.906Z,80.64
2023-08-16T15:46:07.717Z,84.95
2023-08-16T15:48:34.979Z,93.30
2023-08-16T15:51:02.268Z,100.00
2023-08-16T15:53:29.341Z,95.21
2023-08-16T15:55:56.375Z,87.81
2023-08-16T15:58:27.855Z,81.50
2023-08-16T16:01:00.592Z,83.13
2023-08-16T16:03:32.046Z,91.78
2023-08-16T16:05:59.361Z,94.98
2023-08-16T16:08:30.239Z,88.74
2023-08-16T16:10:57.368Z,91.53
2023-08-16T16:13:24.786Z,97.32
2023-08-16T16:15:52.261Z,100.00
2023-08-16T16:18:20.615Z,100.00
2023-08-16T16:20:47.849Z,100.00
2023-08-16T16:23:14.805Z,100.00
2023-08-16T16:25:41.889Z,100.00
2023-08-16T16:28:08.867Z,100.00
2023-08-16T16:30:35.834Z,100.00
2023-08-16T16:33:06.765Z,100.00
2023-08-16T16:35:35.566Z,100.00
2023-08-16T16:38:02.610Z,100.00
2023-08-16T16:40:30.151Z,100.00
2023-08-16T16:42:57.014Z,100.00
2023-08-16T16:45:23.961Z,100.00
2023-08-16T16:47:50.853Z,100.00
2023-08-16T16:50:18.508Z,100.00
2023-08-16T16:52:45.414Z,100.00
2023-08-16T16:55:12.270Z,100.00
2023-08-16T16:57:39.195Z,100.00
2023-08-16T17:00:11.749Z,100.00
2023-08-16T17:02:38.756Z,100.00
2023-08-16T17:05:06.023Z,100.00
2023-08-16T17:07:32.903Z,100.00
2023-08-16T17:09:59.864Z,100.00
2023-08-16T17:12:26.835Z,100.00
2023-08-16T17:15:00.179Z,100.00
2023-08-16T17:17:27.637Z,100.00
2023-08-16T17:19:54.959Z,100.00
2023-08-16T17:22:24.871Z,100.00
2023-08-16T17:24:52.236Z,100.00
2023-08-16T17:27:19.176Z,100.00
2023-08-16T17:29:46.042Z,100.00
2023-08-16T17:32:12.982Z,100.00
2023-08-16T17:34:40.067Z,100.00
2023-08-16T17:37:06.999Z,100.00
2023-08-16T17:39:33.830Z,100.00
2023-08-16T17:42:00.760Z,100.00
2023-08-16T17:44:27.731Z,100.00
2023-08-16T17:46:54.738Z,100.00
2023-08-16T17:49:21.805Z,100.00
2023-08-16T17:51:48.770Z,100.00
2023-08-16T17:54:15.643Z,100.00
2023-08-16T17:56:42.571Z,100.00
2023-08-16T17:59:09.433Z,100.00
2023-08-16T18:01:36.705Z,100.00
2023-08-16T18:04:04.152Z,100.00
2023-08-16T18:06:31.036Z,100.00
2023-08-16T18:08:57.911Z,100.00
2023-08-16T18:11:25.027Z,100.00
2023-08-16T18:13:52.185Z,100.00
2023-08-16T18:16:19.360Z,100.00
2023-08-16T18:18:46.364Z,100.00
2023-08-16T18:21:13.325Z,100.00
2023-08-16T18:23:40.270Z,100.00
2023-08-16T18:26:08.405Z,100.00
2023-08-16T18:28:35.353Z,100.00
2023-08-16T18:31:02.303Z,100.00
2023-08-16T18:33:29.275Z,100.00
2023-08-16T18:35:56.232Z,100.00
2023-08-16T18:38:23.183Z,100.00
2023-08-16T18:40:50.276Z,100.00
2023-08-16T18:43:19.230Z,100.00
2023-08-16T18:45:48.210Z,100.00
2023-08-16T18:48:16.033Z,100.00
2023-08-16T18:50:42.997Z,100.00
2023-08-16T18:53:09.874Z,100.00
2023-08-16T18:55:41.715Z,100.00
2023-08-16T18:58:08.873Z,100.00
2023-08-16T19:00:35.917Z,100.00
2023-08-16T19:03:02.801Z,100.00
2023-08-16T19:05:29.661Z,100.00
2023-08-16T19:07:56.506Z,100.00
2023-08-16T19:10:24.918Z,100.00
2023-08-16T19:12:51.899Z,100.00
2023-08-16T19:15:18.770Z,100.00
2023-08-16T19:17:45.619Z,100.00
2023-08-16T19:20:12.476Z,100.00
2023-08-16T19:22:39.404Z,100.00
2023-08-16T19:25:06.522Z,100.00
2023-08-16T19:27:33.567Z,100.00
2023-08-16T19:30:00.477Z,100.00
2023-08-16T19:32:27.651Z,100.00
2023-08-16T19:34:54.633Z,100.00
2023-08-16T19:37:21.625Z,100.00
2023-08-16T19:39:50.592Z,100.00
2023-08-16T19:42:17.437Z,100.00
2023-08-16T19:44:44.363Z,100.00
2023-08-16T19:47:11.248Z,100.00
2023-08-16T19:49:38.140Z,100.00
2023-08-16T19:52:05.297Z,100.00
2023-08-16T19:54:35.022Z,100.00
2023-08-16T19:57:03.295Z,100.00
2023-08-16T19:59:30.574Z,100.00
2023-08-16T20:01:57.512Z,100.00
2023-08-16T20:04:24.516Z,100.00
2023-08-16T20:06:51.436Z,100.00
2023-08-16T20:09:18.465Z,100.00
2023-08-16T20:11:46.747Z,100.00
2023-08-16T20:14:13.706Z,100.00
2023-08-16T20:16:40.602Z,100.00
2023-08-16T20:19:07.661Z,100.00
2023-08-16T20:21:34.642Z,100.00
2023-08-16T20:24:01.620Z,100.00
2023-08-16T20:26:28.651Z,100.00
2023-08-16T20:28:55.577Z,100.00
2023-08-16T20:31:22.469Z,100.00
2023-08-16T20:33:50.305Z,100.00
2023-08-16T20:36:17.344Z,100.00
2023-08-16T20:38:44.305Z,100.00
2023-08-16T20:41:11.220Z,100.00
2023-08-16T20:43:38.267Z,100.00
2023-08-16T20:46:08.211Z,100.00
2023-08-16T20:48:35.425Z,100.00
2023-08-16T20:51:02.693Z,100.00
2023-08-16T20:53:29.869Z,100.00
2023-08-16T20:55:56.739Z,100.00
2023-08-16T20:58:23.685Z,100.00
2023-08-16T21:00:50.728Z,100.00
2023-08-16T21:03:17.765Z,100.00
2023-08-16T21:05:44.780Z,100.00
2023-08-16T21:08:13.418Z,100.00
2023-08-16T21:10:40.611Z,100.00
2023-08-16T21:13:07.670Z,100.00
2023-08-16T21:15:34.642Z,100.00
2023-08-16T21:18:01.732Z,100.00
2023-08-16T21:20:28.811Z,100.00
2023-08-16T21:22:55.648Z,100.00
2023-08-16T21:25:22.598Z,100.00
2023-08-16T21:27:50.437Z,100.00
2023-08-16T21:30:17.320Z,100.00
2023-08-16T21:32:44.169Z,100.00
2023-08-16T21:35:11.165Z,100.00
2023-08-16T21:37:38.145Z,100.00
2023-08-16T21:40:05.619Z,100.00
2023-08-16T21:42:32.635Z,100.00
2023-08-16T21:44:59.529Z,100.00
2023-08-16T21:47:26.894Z,100.00
2023-08-16T21:49:54.256Z,100.00
2023-08-16T21:52:21.215Z,100.00
2023-08-16T21:54:48.102Z,100.00
2023-08-16T21:57:15.168Z,100.00
2023-08-16T21:59:42.530Z,100.00
2023-08-16T22:02:09.843Z,100.00
2023-08-16T22:04:37.205Z,100.00
2023-08-16T22:07:04.736Z,100.00
2023-08-16T22:09:32.528Z,100.00
2023-08-16T22:11:59.406Z,100.00
2023-08-16T22:14:26.713Z,100.00
2023-08-16T22:16:53.700Z,100.00
2023-08-16T22:19:20.565Z,100.00
2023-08-16T22:21:49.240Z,100.00
2023-08-16T22:24:16.300Z,100.00
2023-08-16T22:26:43.193Z,100.00
2023-08-16T22:29:10.491Z,100.00
2023-08-16T22:31:37.420Z,100.00
2023-08-16T22:34:04.462Z,100.00
2023-08-16T22:36:31.476Z,100.00
2023-08-16T22:38:58.357Z,100.00
2023-08-16T22:41:25.328Z,100.00
2023-08-16T22:43:52.458Z,100.00
2023-08-16T22:46:19.421Z,100.00
2023-08-16T22:48:46.357Z,100.00
2023-08-16T22:51:13.252Z,100.00
2023-08-16T22:53:40.138Z,100.00
2023-08-16T22:56:07.065Z,100.00
2023-08-16T22:58:33.945Z,100.00
2023-08-16T23:01:00.996Z,100.00
2023-08-16T23:03:27.974Z,100.00
2023-08-16T23:05:55.290Z,100.00
2023-08-16T23:08:22.489Z,100.00
2023-08-16T23:10:49.411Z,100.00
2023-08-16T23:13:16.270Z,100.00
2023-08-16T23:15:43.225Z,100.00
2023-08-16T23:18:10.205Z,100.00
2023-08-16T23:20:37.171Z,100.00
2023-08-16T23:23:04.445Z,100.00
2023-08-16T23:25:31.486Z,100.00
2023-08-16T23:27:58.532Z,100.00
2023-08-16T23:30:25.597Z,100.00
2023-08-16T23:32:53.205Z,100.00
2023-08-16T23:35:20.158Z,100.00
2023-08-16T23:37:47.222Z,100.00
2023-08-16T23:40:14.154Z,100.00
2023-08-16T23:42:41.056Z,100.00
2023-08-16T23:45:08.862Z,100.00
2023-08-16T23:47:35.806Z,100.00
2023-08-16T23:50:02.949Z,100.00
2023-08-16T23:52:29.795Z,100.00
2023-08-16T23:54:56.643Z,100.00
2023-08-16T23:57:23.648Z,100.00
2023-08-16T23:59:50.785Z,100.00
